Center Hill, Florida
Current Conditions -  °F | °C
As of 10:53 AM on Thursday 27 Nov 2014 (Local Time) from KLEE Reporting Station
Clear Clear  
Wind Chill: 64°   Ceiling: Unl
Heat Index: 64°   Visibility: 10mi
Dew Point: 50°   Wind: 9mph
Humidity: 60%   Direction: 300°WNW
Pressure: 30.28"   Gusts: NA
Location:  28.65°N, 81.99°W
Report Text: KLEE 271553Z 30008KT 10SM CLR 18/10 A3028 RMK AO2 SLP251 T01780100
Loading
Personal Weather Stations






























Interactive Weather Map New forecast layout! Learn more

10-Day Weather Forecast

Advertisements
Track Severe Weather on mobile